Time;durP1;ratioP1;P1;durP2;ratioP2;P2;SDS_P1;SDS_P2;PMS_P1;PMS_P2;Temp;Humidity;BMP_temperature;BMP_pressure;BME280_temperature;BME280_humidity;BME280_pressure;Samples;Min_cycle;Max_cycle;Signal;HPM_P1;HPM_P2
2021/04/05 00:01:20;;;;;;;;;;;;;;;28.50;23.37;100533.84;5096503;28;746;-26
2021/04/05 00:03:45;;;;;;;;;;;;;;;28.30;23.79;100539.91;5115801;28;1009;-27
2021/04/05 00:06:11;;;;;;;;;;;;;;;28.71;23.50;100535.66;5116902;28;842;-26
2021/04/05 00:08:36;;;;;;;;;;;;;;;28.84;22.99;100524.88;5121023;28;743;-26
2021/04/05 00:11:01;;;;;;;;;;;;;;;28.90;23.21;100528.66;5121067;28;906;-27
2021/04/05 00:13:28;;;;;;;;;;;;;;;28.65;23.04;100542.69;5104027;28;1952;-25
2021/04/05 00:15:53;;;;;;;;;;;;;;;28.20;23.85;100562.72;5100382;28;870;-48
2021/04/05 00:18:18;;;;;;;;;;;;;;;28.57;23.68;100557.22;5116003;28;994;-28
2021/04/05 00:20:49;;;;;;;;;;;;;;;28.80;23.20;100563.38;5120476;28;751;-26
2021/04/05 00:23:14;;;;;;;;;;;;;;;28.93;23.11;100568.88;5120601;28;886;-26
2021/04/05 00:25:40;;;;;;;;;;;;;;;28.91;23.17;100554.69;5121246;28;795;-28
2021/04/05 00:28:05;;;;;;;;;;;;;;;28.95;23.19;100547.00;5120175;28;830;-26
2021/04/05 00:30:31;;;;;;;;;;;;;;;28.54;23.63;100535.97;5120704;28;767;-27
2021/04/05 00:32:56;;;;;;;;;;;;;;;28.54;23.64;100545.94;5107592;28;1901;-28
2021/04/05 00:35:26;;;;;;;;;;;;;;;28.86;23.47;100551.78;5099870;28;755;-27
2021/04/05 00:37:51;;;;;;;;;;;;;;;28.96;23.35;100538.69;5100391;28;736;-27
2021/04/05 00:40:18;;;;;;;;;;;;;;;28.99;23.20;100539.38;5100300;28;739;-27
2021/04/05 00:42:44;;;;;;;;;;;;;;;28.58;23.45;100539.94;5099670;28;825;-28
2021/04/05 00:45:10;;;;;;;;;;;;;;;28.77;23.37;100540.28;5100015;28;1114;-28
2021/04/05 00:47:38;;;;;;;;;;;;;;;28.97;23.38;100542.28;5109621;28;963;-27
2021/04/05 00:50:10;;;;;;;;;;;;;;;29.03;23.25;100536.03;5119788;28;870;-29
2021/04/05 00:52:36;;;;;;;;;;;;;;;28.77;23.30;100524.03;5120606;28;1960;-27
2021/04/05 00:55:02;;;;;;;;;;;;;;;28.65;23.99;100536.44;5120405;28;771;-28
2021/04/05 00:57:27;;;;;;;;;;;;;;;28.98;23.54;100543.13;5101392;28;1282;-29
2021/04/05 00:59:52;;;;;;;;;;;;;;;29.02;23.28;100550.63;5120101;28;841;-47
2021/04/05 01:02:17;;;;;;;;;;;;;;;28.93;23.21;100552.63;5112160;28;969;-31
2021/04/05 01:04:43;;;;;;;;;;;;;;;28.61;23.52;100536.03;5099666;28;775;-47
2021/04/05 01:07:08;;;;;;;;;;;;;;;28.67;24.06;100535.22;5099543;28;847;-29
2021/04/05 01:09:33;;;;;;;;;;;;;;;28.95;23.37;100547.00;5081573;28;736;-26
2021/04/05 01:11:59;;;;;;;;;;;;;;;29.12;23.37;100552.13;5103180;28;1952;-29
2021/04/05 01:14:24;;;;;;;;;;;;;;;29.17;23.30;100538.81;5120001;28;747;-31
2021/04/05 01:16:49;;;;;;;;;;;;;;;29.04;23.05;100548.56;5115977;28;1001;-26
2021/04/05 01:19:14;;;;;;;;;;;;;;;28.33;24.62;100548.50;5099212;28;936;-27
2021/04/05 01:21:46;;;;;;;;;;;;;;;28.93;23.68;100549.94;5098852;28;1021;-32
2021/04/05 01:24:11;;;;;;;;;;;;;;;29.16;23.59;100539.88;5080928;28;843;-27
2021/04/05 01:26:36;;;;;;;;;;;;;;;29.11;23.51;100535.06;5099427;28;842;-46
2021/04/05 01:29:02;;;;;;;;;;;;;;;28.91;23.51;100535.75;5099048;28;799;-26
2021/04/05 01:31:27;;;;;;;;;;;;;;;28.75;24.02;100538.78;5099226;28;992;-27
2021/04/05 01:33:52;;;;;;;;;;;;;;;29.10;23.68;100538.78;5119175;28;1910;-28
2021/04/05 01:36:18;;;;;;;;;;;;;;;29.21;23.44;100529.25;5118777;28;866;-36
2021/04/05 01:38:43;;;;;;;;;;;;;;;29.27;23.28;100530.31;5119337;28;751;-30
2021/04/05 01:41:10;;;;;;;;;;;;;;;28.82;23.82;100534.25;5119773;28;982;-28
2021/04/05 01:43:35;;;;;;;;;;;;;;;28.82;23.75;100529.69;5119052;28;913;-28
2021/04/05 01:46:01;;;;;;;;;;;;;;;28.92;23.89;100529.31;5118743;28;1170;-35
2021/04/05 01:48:27;;;;;;;;;;;;;;;29.00;23.75;100525.63;5102016;28;1044;-26
2021/04/05 01:50:59;;;;;;;;;;;;;;;28.53;24.32;100528.88;5098575;28;870;-25
2021/04/05 01:53:24;;;;;;;;;;;;;;;28.94;24.16;100523.69;5080575;28;1914;-33
2021/04/05 01:55:49;;;;;;;;;;;;;;;29.21;23.70;100523.84;5098701;28;815;-32
2021/04/05 01:58:18;;;;;;;;;;;;;;;29.28;23.11;100519.25;5098714;28;799;-28
2021/04/05 02:00:43;;;;;;;;;;;;;;;29.16;23.43;100502.75;5098162;28;796;-28
2021/04/05 02:03:09;;;;;;;;;;;;;;;28.78;23.80;100511.34;5113041;28;966;-27
2021/04/05 02:05:38;;;;;;;;;;;;;;;28.48;24.89;100520.50;5118299;28;750;-27
2021/04/05 02:08:04;;;;;;;;;;;;;;;28.98;24.11;100510.63;5118916;28;755;-28
2021/04/05 02:10:29;;;;;;;;;;;;;;;29.01;24.03;100507.50;5100011;28;816;-28
2021/04/05 02:12:55;;;;;;;;;;;;;;;28.84;23.93;100519.47;5106403;28;1992;-27
2021/04/05 02:15:23;;;;;;;;;;;;;;;28.67;24.54;100518.97;5098304;28;748;-28
2021/04/05 02:17:48;;;;;;;;;;;;;;;28.98;23.76;100510.63;5110069;28;951;-27
2021/04/05 02:20:14;;;;;;;;;;;;;;;29.15;23.46;100511.94;5118405;28;806;-29
2021/04/05 02:22:43;;;;;;;;;;;;;;;28.99;23.65;100504.16;5118946;28;797;-29
2021/04/05 02:25:12;;;;;;;;;;;;;;;27.84;23.53;100507.72;5118370;28;851;-28
2021/04/05 02:27:37;;;;;;;;;;;;;;;27.83;23.95;100516.84;5117975;28;735;-26
2021/04/05 02:30:04;;;;;;;;;;;;;;;27.78;24.82;100510.38;5117940;28;720;-26
2021/04/05 02:32:29;;;;;;;;;;;;;;;27.77;24.99;100514.94;5090842;28;1910;-28
2021/04/05 02:34:55;;;;;;;;;;;;;;;27.79;24.93;100521.00;5079412;28;771;-37
2021/04/05 02:37:20;;;;;;;;;;;;;;;27.66;24.92;100516.25;5080021;28;791;-31
2021/04/05 02:39:45;;;;;;;;;;;;;;;27.58;25.08;100506.41;5079593;28;783;-29
2021/04/05 02:42:10;;;;;;;;;;;;;;;27.59;25.29;100507.25;5097011;28;727;-27
2021/04/05 02:44:36;;;;;;;;;;;;;;;27.51;25.50;100509.03;5097903;28;842;-44
2021/04/05 02:47:01;;;;;;;;;;;;;;;27.54;25.41;100509.69;5084101;28;1241;-27
2021/04/05 02:49:26;;;;;;;;;;;;;;;27.49;25.39;100507.56;5099374;28;843;-45
2021/04/05 02:51:51;;;;;;;;;;;;;;;27.46;25.75;100511.47;5118080;28;1909;-28
2021/04/05 02:54:17;;;;;;;;;;;;;;;27.45;26.03;100511.66;5099582;28;831;-28
2021/04/05 02:56:42;;;;;;;;;;;;;;;27.42;26.14;100509.34;5096150;28;824;-27
2021/04/05 02:59:07;;;;;;;;;;;;;;;27.46;25.85;100516.06;5099502;28;823;-40
2021/04/05 03:01:33;;;;;;;;;;;;;;;27.49;26.21;100511.09;5097849;28;1009;-27
2021/04/05 03:03:58;;;;;;;;;;;;;;;26.93;23.42;100522.44;5078148;28;979;-30
2021/04/05 03:06:24;;;;;;;;;;;;;;;25.23;22.01;100516.88;5097372;28;787;-32
2021/04/05 03:08:49;;;;;;;;;;;;;;;24.81;23.59;100521.56;5097177;28;839;-27
2021/04/05 03:11:15;;;;;;;;;;;;;;;26.25;23.92;100535.75;5078703;28;874;-26
2021/04/05 03:13:40;;;;;;;;;;;;;;;26.76;24.50;100555.84;5096966;28;1914;-28
2021/04/05 03:16:06;;;;;;;;;;;;;;;26.70;24.59;100540.41;5117442;28;853;-28
2021/04/05 03:18:34;;;;;;;;;;;;;;;26.10;25.10;100538.41;5081041;28;1245;-28
2021/04/05 03:20:59;;;;;;;;;;;;;;;25.79;25.81;100547.41;5078794;28;858;-27
2021/04/05 03:23:25;;;;;;;;;;;;;;;26.35;24.99;100535.53;5078708;28;767;-26
2021/04/05 03:25:50;;;;;;;;;;;;;;;26.75;24.58;100542.53;5078189;28;816;-29
2021/04/05 03:28:16;;;;;;;;;;;;;;;26.20;25.24;100543.56;5097089;28;775;-27
2021/04/05 03:30:52;;;;;;;;;;;;;;;25.76;26.09;100548.59;5096548;28;813;-26
2021/04/05 03:33:25;;;;;;;;;;;;;;;25.51;26.45;100551.41;5111982;28;1913;-26
2021/04/05 03:35:52;;;;;;;;;;;;;;;26.39;25.15;100553.00;5098794;28;842;-26
2021/04/05 03:38:18;;;;;;;;;;;;;;;26.58;24.82;100556.22;5117182;28;743;-26
2021/04/05 03:40:43;;;;;;;;;;;;;;;26.14;25.76;100549.69;5117432;28;806;-28
2021/04/05 03:43:27;;;;;;;;;;;;;;;25.65;26.59;100557.09;5098715;28;898;-27
2021/04/05 03:45:53;;;;;;;;;;;;;;;25.29;24.66;100561.13;5116887;28;1110;-27
2021/04/05 03:48:33;;;;;;;;;;;;;;;24.81;24.03;100557.38;5083065;28;966;-27
2021/04/05 03:51:08;;;;;;;;;;;;;;;23.09;24.26;100564.00;5095645;28;917;-30
2021/04/05 03:53:42;;;;;;;;;;;;;;;18.79;29.78;100556.69;5077975;28;1917;-30
2021/04/05 03:56:12;;;;;;;;;;;;;;;19.11;30.44;100549.56;5078613;28;847;-26
2021/04/05 03:58:37;;;;;;;;;;;;;;;22.41;26.63;100556.53;5081018;28;1496;-39
2021/04/05 04:01:05;;;;;;;;;;;;;;;23.79;24.42;100555.91;5104488;28;1041;-41
2021/04/05 04:03:36;;;;;;;;;;;;;;;20.89;25.78;100555.03;5098626;28;907;-38
2021/04/05 04:06:04;;;;;;;;;;;;;;;17.35;32.43;100564.81;5096378;28;819;-38
2021/04/05 04:08:37;;;;;;;;;;;;;;;17.29;33.50;100554.63;5078460;28;803;-38
2021/04/05 04:11:05;;;;;;;;;;;;;;;18.87;30.43;100556.00;5097403;28;987;-37
2021/04/05 04:13:31;;;;;;;;;;;;;;;19.20;29.53;100558.59;5100096;28;1962;-43
2021/04/05 04:15:56;;;;;;;;;;;;;;;18.35;31.17;100559.50;5078108;28;1288;-34
2021/04/05 04:18:21;;;;;;;;;;;;;;;18.34;31.04;100555.13;5078723;28;915;-28
2021/04/05 04:20:46;;;;;;;;;;;;;;;17.23;32.64;100548.84;5096502;28;864;-32
2021/04/05 04:23:12;;;;;;;;;;;;;;;18.54;30.62;100553.44;5096684;28;755;-35
2021/04/05 04:25:38;;;;;;;;;;;;;;;19.69;29.17;100552.53;5077619;28;803;-35
2021/04/05 04:28:03;;;;;;;;;;;;;;;18.18;30.82;100545.78;5096597;28;763;-33
2021/04/05 04:30:32;;;;;;;;;;;;;;;17.68;32.21;100555.09;5096439;28;863;-39
2021/04/05 04:33:07;;;;;;;;;;;;;;;16.45;35.61;100557.41;5095498;28;1905;-32
2021/04/05 04:35:33;;;;;;;;;;;;;;;18.84;30.37;100557.13;5096664;28;842;-32
2021/04/05 04:37:59;;;;;;;;;;;;;;;19.80;29.63;100559.59;5096411;28;763;-32
2021/04/05 04:40:24;;;;;;;;;;;;;;;18.98;30.39;100565.75;5095874;28;759;-30
2021/04/05 04:42:50;;;;;;;;;;;;;;;20.26;28.62;100562.59;5096350;28;818;-31
2021/04/05 04:45:16;;;;;;;;;;;;;;;20.04;28.86;100567.22;5095978;28;1033;-29
2021/04/05 04:47:41;;;;;;;;;;;;;;;18.51;30.98;100563.50;5106552;28;978;-30
2021/04/05 04:50:08;;;;;;;;;;;;;;;16.63;34.14;100563.13;5116336;28;883;-43
2021/04/05 04:52:33;;;;;;;;;;;;;;;17.56;33.84;100566.72;5117422;28;1911;-32
2021/04/05 04:54:58;;;;;;;;;;;;;;;16.96;34.09;100567.78;5119943;28;847;-31
2021/04/05 04:57:24;;;;;;;;;;;;;;;17.83;33.26;100571.59;5102122;28;771;-30
2021/04/05 04:59:49;;;;;;;;;;;;;;;19.17;30.65;100577.50;5120801;28;748;-31
2021/04/05 05:02:14;;;;;;;;;;;;;;;19.78;30.04;100569.56;5094410;28;937;-30
2021/04/05 05:04:39;;;;;;;;;;;;;;;18.52;32.38;100575.88;5081393;28;810;-31
2021/04/05 05:07:05;;;;;;;;;;;;;;;19.25;31.30;100579.53;5081447;28;756;-33
2021/04/05 05:09:30;;;;;;;;;;;;;;;19.65;30.69;100589.31;5099235;28;806;-26
2021/04/05 05:11:55;;;;;;;;;;;;;;;22.06;26.71;100593.91;5084629;28;1980;-28
2021/04/05 05:14:21;;;;;;;;;;;;;;;21.35;27.70;100588.25;5101695;28;763;-34
2021/04/05 05:16:46;;;;;;;;;;;;;;;21.66;27.30;100598.66;5098080;28;958;-26
2021/04/05 05:19:11;;;;;;;;;;;;;;;22.68;25.84;100591.41;5099445;28;779;-28
2021/04/05 05:21:57;;;;;;;;;;;;;;;22.67;25.61;100595.94;5081185;28;759;-27
2021/04/05 05:24:22;;;;;;;;;;;;;;;23.31;25.03;100599.31;5098489;28;1043;-27
2021/04/05 05:26:48;;;;;;;;;;;;;;;24.08;23.78;100597.56;5097862;28;835;-31
2021/04/05 05:29:14;;;;;;;;;;;;;;;24.16;23.66;100597.59;5097953;28;859;-33
2021/04/05 05:31:40;;;;;;;;;;;;;;;20.72;28.04;100586.00;5100539;28;993;-39
2021/04/05 05:34:10;;;;;;;;;;;;;;;24.31;23.74;100595.09;5101221;28;507;-44
2021/04/05 05:36:35;;;;;;;;;;;;;;;22.61;26.35;100588.53;5119276;28;799;-36
2021/04/05 05:39:00;;;;;;;;;;;;;;;22.53;26.60;100588.44;5119143;28;743;-32
2021/04/05 05:41:46;;;;;;;;;;;;;;;23.71;24.94;100588.91;5100807;28;806;-33
2021/04/05 05:44:18;;;;;;;;;;;;;;;24.31;24.09;100605.00;5067210;28;1084;-32
2021/04/05 05:46:45;;;;;;;;;;;;;;;24.66;23.77;100581.44;5116157;28;1074;-29
2021/04/05 05:49:14;;;;;;;;;;;;;;;25.12;23.28;100585.44;5098517;28;1013;-36
2021/04/05 05:51:39;;;;;;;;;;;;;;;25.67;22.82;100579.31;5079488;28;727;-32
2021/04/05 05:54:07;;;;;;;;;;;;;;;25.91;22.94;100586.38;5098023;28;1910;-34
2021/04/05 05:57:03;;;;;;;;;;;;;;;26.12;22.74;100581.38;5098269;28;757;-31
2021/04/05 05:59:43;;;;;;;;;;;;;;;26.43;22.20;100593.09;5070643;28;1284;-31
2021/04/05 06:02:18;;;;;;;;;;;;;;;26.67;22.24;100586.66;5085739;28;1030;-35
2021/04/05 06:05:01;;;;;;;;;;;;;;;26.83;22.20;100595.56;5118900;28;809;-33
2021/04/05 06:07:29;;;;;;;;;;;;;;;26.92;22.18;100593.63;5118778;28;771;-32
2021/04/05 06:10:24;;;;;;;;;;;;;;;27.13;21.83;100601.88;5118283;28;803;-34
2021/04/05 06:13:06;;;;;;;;;;;;;;;27.25;21.63;100610.34;5097938;28;1984;-29
2021/04/05 06:15:31;;;;;;;;;;;;;;;27.39;21.43;100600.53;5079748;28;826;-35
2021/04/05 06:18:11;;;;;;;;;;;;;;;27.59;21.33;100604.50;5110398;28;954;-32
2021/04/05 06:20:37;;;;;;;;;;;;;;;27.59;21.45;100602.63;5118452;28;783;-30
2021/04/05 06:23:08;;;;;;;;;;;;;;;27.66;21.64;100613.53;5117805;28;848;-30
2021/04/05 06:25:43;;;;;;;;;;;;;;;27.57;21.49;100602.00;5100013;28;775;-32
2021/04/05 06:28:10;;;;;;;;;;;;;;;26.50;23.06;100612.94;5100177;28;815;-30
2021/04/05 06:30:59;;;;;;;;;;;;;;;26.71;22.96;100606.84;5099900;28;737;-34
2021/04/05 06:33:29;;;;;;;;;;;;;;;27.80;21.44;100619.97;5080797;28;1909;-32
2021/04/05 06:36:13;;;;;;;;;;;;;;;28.07;21.29;100622.94;5097816;28;776;-30
2021/04/05 06:38:45;;;;;;;;;;;;;;;27.99;21.54;100623.88;5097562;28;814;-30
2021/04/05 06:41:29;;;;;;;;;;;;;;;28.14;21.54;100622.16;5079885;28;772;-31
2021/04/05 06:44:08;;;;;;;;;;;;;;;28.18;21.36;100632.41;5097484;28;847;-34
2021/04/05 06:46:52;;;;;;;;;;;;;;;28.09;21.49;100636.28;5079774;28;1091;-30
2021/04/05 06:49:32;;;;;;;;;;;;;;;26.98;22.97;100633.38;5117889;28;866;-41
2021/04/05 06:52:16;;;;;;;;;;;;;;;26.63;23.49;100642.84;5117590;28;1914;-27
2021/04/05 06:54:44;;;;;;;;;;;;;;;27.56;22.21;100648.13;5117533;28;775;-27
2021/04/05 06:57:14;;;;;;;;;;;;;;;27.89;22.05;100644.16;5098957;28;1323;-28
2021/04/05 06:59:58;;;;;;;;;;;;;;;28.15;21.81;100646.31;5117149;28;815;-28
2021/04/05 07:02:32;;;;;;;;;;;;;;;28.00;21.93;100651.78;5108922;28;1028;-27
2021/04/05 07:05:17;;;;;;;;;;;;;;;28.13;21.86;100655.66;5096591;28;796;-32
2021/04/05 07:07:44;;;;;;;;;;;;;;;28.29;21.28;100658.13;5096825;28;818;-30
2021/04/05 07:10:29;;;;;;;;;;;;;;;28.34;21.39;100655.66;5078763;28;847;-30
2021/04/05 07:12:58;;;;;;;;;;;;;;;28.45;21.69;100659.75;5108201;28;1894;-29
2021/04/05 07:15:25;;;;;;;;;;;;;;;28.47;21.55;100657.69;5116252;28;815;-29
2021/04/05 07:18:08;;;;;;;;;;;;;;;27.82;22.19;100660.31;5087082;28;962;-28
2021/04/05 07:20:35;;;;;;;;;;;;;;;26.43;22.61;100663.22;5096861;28;882;-27
2021/04/05 07:23:22;;;;;;;;;;;;;;;27.20;22.56;100666.78;5096978;28;771;-27
2021/04/05 07:26:06;;;;;;;;;;;;;;;26.09;22.67;100660.72;5096639;28;835;-26
2021/04/05 07:28:40;;;;;;;;;;;;;;;25.53;23.19;100657.13;5096918;28;923;-27
2021/04/05 07:31:08;;;;;;;;;;;;;;;25.40;23.58;100660.38;5077523;28;854;-26
2021/04/05 07:33:37;;;;;;;;;;;;;;;25.12;23.72;100668.00;5114245;28;1905;-26
2021/04/05 07:36:11;;;;;;;;;;;;;;;24.92;23.86;100658.44;5117411;28;775;-26
2021/04/05 07:38:47;;;;;;;;;;;;;;;24.88;24.18;100664.31;5116710;28;842;-28
2021/04/05 07:41:15;;;;;;;;;;;;;;;24.78;24.23;100672.56;5098518;28;815;-27
2021/04/05 07:43:50;;;;;;;;;;;;;;;24.81;24.12;100670.38;5099255;28;747;-27
2021/04/05 07:46:20;;;;;;;;;;;;;;;24.57;24.53;100669.34;5116437;28;1090;-29
2021/04/05 07:48:58;;;;;;;;;;;;;;;25.85;23.59;100675.19;5079362;28;993;-26
2021/04/05 07:51:42;;;;;;;;;;;;;;;26.75;22.58;100680.16;5078573;28;853;-26
2021/04/05 07:54:08;;;;;;;;;;;;;;;25.64;23.33;100672.06;5096057;28;1906;-26
2021/04/05 07:56:34;;;;;;;;;;;;;;;25.01;23.95;100677.25;5078413;28;825;-27
2021/04/05 07:59:05;;;;;;;;;;;;;;;26.33;22.94;100676.94;5096574;28;871;-25
2021/04/05 08:01:50;;;;;;;;;;;;;;;26.94;22.13;100684.22;5078886;28;1005;-29
2021/04/05 08:04:30;;;;;;;;;;;;;;;27.32;22.05;100686.06;5099054;28;798;-29
2021/04/05 08:06:55;;;;;;;;;;;;;;;27.58;21.48;100683.88;5098176;28;786;-35
2021/04/05 08:09:23;;;;;;;;;;;;;;;27.74;20.93;100680.19;5116977;28;818;-31
2021/04/05 08:12:00;;;;;;;;;;;;;;;27.75;21.38;100681.84;5095893;28;1905;-32
2021/04/05 08:14:38;;;;;;;;;;;;;;;27.93;20.84;100683.28;5095907;28;795;-27
2021/04/05 08:17:12;;;;;;;;;;;;;;;28.02;20.87;100684.88;5101007;28;970;-28
2021/04/05 08:19:38;;;;;;;;;;;;;;;28.07;20.68;100692.41;5116778;28;734;-28
2021/04/05 08:22:23;;;;;;;;;;;;;;;26.70;21.69;100691.50;5116125;28;779;-29
2021/04/05 08:24:49;;;;;;;;;;;;;;;25.65;23.00;100692.63;5098404;28;808;-29
2021/04/05 08:27:22;;;;;;;;;;;;;;;26.93;21.97;100697.88;5116796;28;802;-32
2021/04/05 08:30:08;;;;;;;;;;;;;;;25.76;22.33;100687.84;5120185;28;791;-41
2021/04/05 08:32:33;;;;;;;;;;;;;;;25.34;23.00;100684.44;5092130;28;1894;-28
2021/04/05 08:35:06;;;;;;;;;;;;;;;25.14;23.11;100691.03;5099943;28;834;-29
2021/04/05 08:37:40;;;;;;;;;;;;;;;25.02;23.09;100689.72;5080708;28;999;-29
2021/04/05 08:40:08;;;;;;;;;;;;;;;24.88;23.41;100684.00;5100210;28;892;-28
2021/04/05 08:42:34;;;;;;;;;;;;;;;24.87;23.75;100684.16;5081677;28;839;-29
2021/04/05 08:45:05;;;;;;;;;;;;;;;24.90;23.28;100681.13;5099299;28;1031;-29
2021/04/05 08:47:31;;;;;;;;;;;;;;;24.74;23.51;100679.28;5108902;28;963;-28
2021/04/05 08:50:03;;;;;;;;;;;;;;;24.74;23.12;100679.28;5120120;28;838;-31
2021/04/05 08:52:30;;;;;;;;;;;;;;;24.81;23.26;100681.13;5119254;28;1909;-34
2021/04/05 08:54:56;;;;;;;;;;;;;;;24.70;23.86;100681.47;5101577;28;785;-31
2021/04/05 08:57:22;;;;;;;;;;;;;;;24.56;23.91;100667.69;5101817;28;810;-28
2021/04/05 09:00:08;;;;;;;;;;;;;;;24.70;23.14;100665.34;5119413;28;585;-26
2021/04/05 09:02:36;;;;;;;;;;;;;;;24.65;23.24;100673.91;5109914;28;1463;-28
2021/04/05 09:05:02;;;;;;;;;;;;;;;24.62;23.75;100671.56;5099332;28;763;-29
2021/04/05 09:07:46;;;;;;;;;;;;;;;24.55;23.24;100667.84;5081120;28;827;-28
2021/04/05 09:10:11;;;;;;;;;;;;;;;24.46;24.06;100678.63;5099097;28;831;-33
2021/04/05 09:12:37;;;;;;;;;;;;;;;24.46;23.44;100667.84;5090098;28;1902;-38
2021/04/05 09:15:21;;;;;;;;;;;;;;;24.47;23.75;100668.72;5101102;28;751;-37
2021/04/05 09:17:49;;;;;;;;;;;;;;;25.01;23.21;100661.97;5108078;28;942;-35
2021/04/05 09:20:27;;;;;;;;;;;;;;;25.05;23.65;100663.31;5099286;28;822;-28
2021/04/05 09:22:52;;;;;;;;;;;;;;;24.76;24.34;100663.81;5098887;28;759;-33
2021/04/05 09:25:36;;;;;;;;;;;;;;;24.67;24.60;100663.00;5098804;28;899;-25
2021/04/05 09:28:20;;;;;;;;;;;;;;;24.86;24.11;100669.03;5099065;28;867;-30
2021/04/05 09:30:54;;;;;;;;;;;;;;;24.29;23.25;100675.06;5099387;28;807;-34
2021/04/05 09:33:25;;;;;;;;;;;;;;;25.25;22.96;100671.00;5114557;28;1898;-32
2021/04/05 09:35:58;;;;;;;;;;;;;;;25.50;23.07;100653.94;5118975;28;818;-35
2021/04/05 09:38:23;;;;;;;;;;;;;;;25.80;22.77;100664.94;5098826;28;1487;-36
2021/04/05 09:41:07;;;;;;;;;;;;;;;26.34;23.55;100667.84;5100763;28;1368;-33
2021/04/05 09:43:41;;;;;;;;;;;;;;;25.90;23.42;100676.34;5115531;28;887;-36
2021/04/05 09:46:07;;;;;;;;;;;;;;;26.74;24.83;100678.50;5098380;28;1008;-36
2021/04/05 09:48:50;;;;;;;;;;;;;;;26.87;25.03;100680.56;5098791;28;1250;-34
2021/04/05 09:51:33;;;;;;;;;;;;;;;27.20;24.03;100674.88;5112767;28;763;-34
2021/04/05 09:54:04;;;;;;;;;;;;;;;25.39;25.15;100676.69;5082185;28;1914;-34
2021/04/05 09:56:32;;;;;;;;;;;;;;;24.37;26.08;100682.31;5113285;28;775;-32
2021/04/05 09:59:05;;;;;;;;;;;;;;;26.39;24.30;100687.84;5081314;28;841;-35
2021/04/05 10:01:31;;;;;;;;;;;;;;;26.99;22.73;100684.50;5112560;28;934;-34
2021/04/05 10:03:57;;;;;;;;;;;;;;;27.33;21.81;100686.88;5118425;28;862;-32
2021/04/05 10:06:23;;;;;;;;;;;;;;;27.65;21.35;100692.94;5118322;28;850;-35
2021/04/05 10:08:48;;;;;;;;;;;;;;;27.76;20.98;100686.22;5099545;28;795;-36
2021/04/05 10:11:14;;;;;;;;;;;;;;;27.86;20.55;100691.34;5118366;28;1419;-34
2021/04/05 10:13:43;;;;;;;;;;;;;;;27.20;20.18;100677.56;5100198;28;1968;-37
2021/04/05 10:16:08;;;;;;;;;;;;;;;24.52;23.13;100679.81;5079569;28;863;-37
2021/04/05 10:18:34;;;;;;;;;;;;;;;25.02;23.69;100676.28;5097724;28;994;-38
2021/04/05 10:21:00;;;;;;;;;;;;;;;25.57;22.67;100663.00;5099703;28;819;-38
2021/04/05 10:23:26;;;;;;;;;;;;;;;23.17;26.14;100663.31;5118231;28;795;-36
2021/04/05 10:25:55;;;;;;;;;;;;;;;23.65;26.17;100657.56;5118260;28;742;-38
2021/04/05 10:28:20;;;;;;;;;;;;;;;23.54;25.94;100656.00;5118009;28;760;-40
2021/04/05 10:30:46;;;;;;;;;;;;;;;23.72;25.43;100665.81;5099982;28;818;-39
2021/04/05 10:33:15;;;;;;;;;;;;;;;23.95;25.35;100671.44;5084532;28;1909;-36
2021/04/05 10:35:41;;;;;;;;;;;;;;;23.98;25.11;100664.88;5079514;28;761;-38
2021/04/05 10:38:06;;;;;;;;;;;;;;;23.75;24.76;100661.97;5079614;28;821;-38
2021/04/05 10:40:33;;;;;;;;;;;;;;;23.59;24.89;100656.34;5097641;28;746;-38
2021/04/05 10:43:02;;;;;;;;;;;;;;;23.65;24.83;100662.94;5096812;28;1427;-38
2021/04/05 10:45:28;;;;;;;;;;;;;;;25.64;22.79;100661.28;5079356;28;1256;-38
2021/04/05 10:47:55;;;;;;;;;;;;;;;26.41;21.29;100660.69;5091405;28;1029;-39
2021/04/05 10:50:24;;;;;;;;;;;;;;;26.88;20.82;100661.50;5098554;28;782;-38
2021/04/05 10:52:51;;;;;;;;;;;;;;;26.19;22.79;100663.22;5099633;28;1906;-40
2021/04/05 10:55:17;;;;;;;;;;;;;;;25.23;23.48;100662.25;5099706;28;725;-39
2021/04/05 10:57:42;;;;;;;;;;;;;;;26.22;22.75;100662.00;5099134;28;752;-39
2021/04/05 11:00:08;;;;;;;;;;;;;;;26.97;21.87;100666.81;5100344;28;728;-38
2021/04/05 11:02:33;;;;;;;;;;;;;;;27.39;21.27;100662.66;5107867;28;942;-41
2021/04/05 11:05:05;;;;;;;;;;;;;;;27.68;21.32;100652.03;5096703;28;803;-36
2021/04/05 11:07:30;;;;;;;;;;;;;;;27.91;21.21;100652.94;5097312;28;728;-38
2021/04/05 11:09:57;;;;;;;;;;;;;;;26.98;20.49;100652.28;5079137;28;795;-39
2021/04/05 11:12:22;;;;;;;;;;;;;;;25.81;21.74;100647.75;5085103;28;2008;-38
2021/04/05 11:14:48;;;;;;;;;;;;;;;24.93;22.32;100654.75;5117373;28;945;-39
2021/04/05 11:17:14;;;;;;;;;;;;;;;24.91;22.15;100646.00;5110663;28;1005;-39
2021/04/05 11:19:47;;;;;;;;;;;;;;;24.91;22.25;100642.47;5077848;28;951;-38
2021/04/05 11:22:13;;;;;;;;;;;;;;;25.87;21.62;100638.13;5079832;28;838;-36
2021/04/05 11:24:38;;;;;;;;;;;;;;;26.54;20.25;100638.53;5078563;28;804;-38
2021/04/05 11:27:06;;;;;;;;;;;;;;;26.16;20.04;100644.66;5077947;28;827;-34
2021/04/05 11:29:31;;;;;;;;;;;;;;;25.45;20.75;100624.84;5079265;28;810;-32
2021/04/05 11:31:57;;;;;;;;;;;;;;;25.00;21.32;100629.84;5100888;28;1898;-34
2021/04/05 11:34:24;;;;;;;;;;;;;;;24.84;21.74;100623.44;5080614;28;800;-36
2021/04/05 11:36:54;;;;;;;;;;;;;;;24.81;21.79;100630.03;5099206;28;752;-37
2021/04/05 11:39:19;;;;;;;;;;;;;;;24.93;22.06;100627.84;5098633;28;834;-35
2021/04/05 11:41:45;;;;;;;;;;;;;;;25.05;22.86;100625.66;5098477;28;762;-35
2021/04/05 11:44:11;;;;;;;;;;;;;;;25.61;22.72;100631.16;5117138;28;874;-37
2021/04/05 11:46:36;;;;;;;;;;;;;;;26.61;22.01;100633.25;5095856;28;1293;-36
2021/04/05 11:49:02;;;;;;;;;;;;;;;27.01;21.68;100627.59;5095839;28;824;-34
2021/04/05 11:51:27;;;;;;;;;;;;;;;27.35;21.24;100620.84;5096681;28;738;-33
2021/04/05 11:53:52;;;;;;;;;;;;;;;26.13;21.85;100616.22;5096263;28;1882;-35
2021/04/05 11:56:19;;;;;;;;;;;;;;;25.53;22.14;100610.47;5096193;28;792;-35
2021/04/05 11:58:57;;;;;;;;;;;;;;;26.78;21.61;100607.78;5078656;28;843;-38
2021/04/05 12:01:22;;;;;;;;;;;;;;;27.28;21.11;100611.81;5097336;28;851;-36
2021/04/05 12:03:47;;;;;;;;;;;;;;;27.50;20.80;100618.13;5120282;28;971;-35
2021/04/05 12:06:14;;;;;;;;;;;;;;;27.62;20.72;100610.38;5120962;28;738;-35
2021/04/05 12:08:40;;;;;;;;;;;;;;;27.72;20.59;100620.91;5120715;28;851;-37
2021/04/05 12:11:06;;;;;;;;;;;;;;;26.31;22.21;100616.94;5102035;28;846;-34
2021/04/05 12:13:36;;;;;;;;;;;;;;;25.74;22.96;100609.06;5103660;28;1878;-37
2021/04/05 12:16:01;;;;;;;;;;;;;;;25.56;23.30;100615.50;5082200;28;928;-34
2021/04/05 12:18:27;;;;;;;;;;;;;;;25.42;23.79;100612.53;5098516;28;983;-33
2021/04/05 12:20:59;;;;;;;;;;;;;;;25.20;23.87;100616.84;5120630;28;748;-35
2021/04/05 12:23:25;;;;;;;;;;;;;;;25.46;23.46;100625.69;5101780;28;1451;-33
2021/04/05 12:25:50;;;;;;;;;;;;;;;25.40;23.26;100622.66;5120224;28;696;-35
2021/04/05 12:28:16;;;;;;;;;;;;;;;25.16;23.58;100623.56;5102607;28;747;-35
2021/04/05 12:30:41;;;;;;;;;;;;;;;25.13;23.32;100619.38;5102346;28;763;-35
2021/04/05 12:33:07;;;;;;;;;;;;;;;25.07;23.04;100620.91;5087480;28;1973;-34
2021/04/05 12:35:32;;;;;;;;;;;;;;;24.92;23.40;100611.88;5081206;28;1457;-34
2021/04/05 12:37:59;;;;;;;;;;;;;;;23.94;24.95;100618.69;5099985;28;756;-35
2021/04/05 12:40:33;;;;;;;;;;;;;;;24.64;24.17;100614.91;5082009;28;811;-30
2021/04/05 12:43:06;;;;;;;;;;;;;;;25.00;23.61;100619.09;5081833;28;823;-36
2021/04/05 12:45:31;;;;;;;;;;;;;;;24.96;23.63;100609.69;5099676;28;1100;-36
2021/04/05 12:47:56;;;;;;;;;;;;;;;24.93;23.61;100611.72;5112365;28;1018;-35
2021/04/05 12:50:22;;;;;;;;;;;;;;;25.80;23.13;100613.75;5101377;28;847;-34
2021/04/05 12:52:48;;;;;;;;;;;;;;;26.68;22.61;100609.06;5101695;28;1967;-36
2021/04/05 12:55:14;;;;;;;;;;;;;;;27.16;22.07;100605.22;5101668;28;803;-35
2021/04/05 12:57:40;;;;;;;;;;;;;;;27.54;21.88;100599.69;5101610;28;762;-36
2021/04/05 13:00:25;;;;;;;;;;;;;;;27.83;21.39;100599.81;5119799;28;721;-36
2021/04/05 13:03:06;;;;;;;;;;;;;;;26.58;22.75;100598.53;5106414;28;1997;-37
2021/04/05 13:05:38;;;;;;;;;;;;;;;26.05;23.01;100597.41;5099438;28;865;-37